createdAt,value
2022-12-03T00:00:35.162Z,88.01
2022-12-03T00:03:19.367Z,87.62
2022-12-03T00:06:03.344Z,87.49
2022-12-03T00:08:48.685Z,87.64
2022-12-03T00:11:32.760Z,87.08
2022-12-03T00:14:16.479Z,88.19
2022-12-03T00:17:00.256Z,88.41
2022-12-03T00:19:44.059Z,88.03
2022-12-03T00:22:29.135Z,88.09
2022-12-03T00:25:14.473Z,88.35
2022-12-03T00:27:58.124Z,89.74
2022-12-03T00:30:41.964Z,89.25
2022-12-03T00:33:25.800Z,87.81
2022-12-03T00:36:10.051Z,87.74
2022-12-03T00:38:53.862Z,88.96
2022-12-03T00:41:39.079Z,88.89
2022-12-03T00:44:23.084Z,89.70
2022-12-03T00:47:07.054Z,88.46
2022-12-03T00:49:51.092Z,89.11
2022-12-03T00:52:35.128Z,90.16
2022-12-03T00:55:19.350Z,90.08
2022-12-03T00:58:04.740Z,89.84
2022-12-03T01:00:48.874Z,89.96
2022-12-03T01:03:32.917Z,90.16
2022-12-03T01:06:16.963Z,90.14
2022-12-03T01:09:00.942Z,89.83
2022-12-03T01:11:45.065Z,90.16
2022-12-03T01:14:30.470Z,90.94
2022-12-03T01:17:14.709Z,90.74
2022-12-03T01:19:59.311Z,90.21
2022-12-03T01:22:43.270Z,91.58
2022-12-03T01:25:27.236Z,90.92
2022-12-03T01:28:11.389Z,90.82
2022-12-03T01:31:14.007Z,90.15
2022-12-03T01:33:58.064Z,90.64
2022-12-03T01:36:42.388Z,89.81
2022-12-03T01:39:26.429Z,90.35
2022-12-03T01:42:13.261Z,90.64
2022-12-03T01:44:59.257Z,91.30
2022-12-03T01:47:44.656Z,92.41
2022-12-03T01:50:33.244Z,91.87
2022-12-03T01:53:19.827Z,91.30
2022-12-03T01:56:03.735Z,91.12
2022-12-03T01:58:48.272Z,90.81
2022-12-03T02:01:32.165Z,90.44
2022-12-03T02:04:20.082Z,90.89
2022-12-03T02:07:21.405Z,90.30
2022-12-03T02:10:06.101Z,90.28
2022-12-03T02:12:53.837Z,90.70
2022-12-03T02:15:39.362Z,90.61
2022-12-03T02:18:23.153Z,89.57
2022-12-03T02:21:16.714Z,88.80
2022-12-03T02:24:08.904Z,89.99
2022-12-03T02:26:54.100Z,90.14
2022-12-03T02:29:38.052Z,90.16
2022-12-03T02:32:23.527Z,89.28
2022-12-03T02:35:08.096Z,87.76
2022-12-03T02:37:55.931Z,88.31
2022-12-03T02:40:40.356Z,86.80
2022-12-03T02:43:39.610Z,86.96
2022-12-03T02:46:23.504Z,85.33
2022-12-03T02:49:08.023Z,86.09
2022-12-03T02:51:51.862Z,87.06
2022-12-03T02:54:36.280Z,87.16
2022-12-03T02:57:20.162Z,86.86
2022-12-03T03:00:06.160Z,85.87
2022-12-03T03:02:51.250Z,88.53
2022-12-03T03:05:37.738Z,88.29
2022-12-03T03:08:21.577Z,88.87
2022-12-03T03:11:05.707Z,88.79
2022-12-03T03:13:49.499Z,86.76
2022-12-03T03:16:36.263Z,85.69
2022-12-03T03:19:20.864Z,87.69
2022-12-03T03:22:04.667Z,87.05
2022-12-03T03:24:48.491Z,86.99
2022-12-03T03:27:32.668Z,86.03
2022-12-03T03:30:16.903Z,85.83
2022-12-03T03:33:02.394Z,87.06
2022-12-03T03:35:48.321Z,86.00
2022-12-03T03:38:33.628Z,87.04
2022-12-03T03:41:18.487Z,87.24
2022-12-03T03:44:02.633Z,87.33
2022-12-03T03:46:46.316Z,85.96
2022-12-03T03:49:31.541Z,87.09
2022-12-03T03:52:16.689Z,85.75
2022-12-03T03:55:00.693Z,85.52
2022-12-03T03:57:44.495Z,85.36
2022-12-03T04:00:28.511Z,85.62
2022-12-03T04:03:12.833Z,84.78
2022-12-03T04:05:58.104Z,85.02
2022-12-03T04:08:41.823Z,85.17
2022-12-03T04:11:42.644Z,86.13
2022-12-03T04:14:26.372Z,85.42
2022-12-03T04:17:10.014Z,85.17
2022-12-03T04:19:53.753Z,86.74
2022-12-03T04:22:40.561Z,85.92
2022-12-03T04:25:42.095Z,85.40
2022-12-03T04:28:43.017Z,86.44
2022-12-03T04:31:44.539Z,87.70
2022-12-03T04:34:42.148Z,88.44
2022-12-03T04:37:26.020Z,87.83
2022-12-03T04:40:25.635Z,88.27
2022-12-03T04:43:09.287Z,88.51
2022-12-03T04:45:53.016Z,90.05
2022-12-03T04:48:36.721Z,88.87
2022-12-03T04:51:20.488Z,88.50
2022-12-03T04:54:04.285Z,87.91
2022-12-03T04:56:49.417Z,88.12
2022-12-03T04:59:34.322Z,87.75
2022-12-03T05:02:18.622Z,89.67
2022-12-03T05:05:02.318Z,89.68
2022-12-03T05:07:46.879Z,89.28
2022-12-03T05:10:30.671Z,88.69
2022-12-03T05:13:15.837Z,87.46
2022-12-03T05:15:59.833Z,86.79
2022-12-03T05:18:43.814Z,88.21
2022-12-03T05:21:27.926Z,87.43
2022-12-03T05:24:11.878Z,86.52
2022-12-03T05:26:55.850Z,86.28
2022-12-03T05:29:41.277Z,86.77
2022-12-03T05:32:25.366Z,87.11
2022-12-03T05:35:10.768Z,87.45
2022-12-03T05:37:55.592Z,88.28
2022-12-03T05:40:39.692Z,89.21
2022-12-03T05:43:22.550Z,88.27
2022-12-03T05:46:08.106Z,87.76
2022-12-03T05:48:52.051Z,87.19
2022-12-03T05:51:35.974Z,86.72
2022-12-03T05:54:19.921Z,86.43
2022-12-03T05:57:03.959Z,85.96
2022-12-03T05:59:48.088Z,87.26
2022-12-03T06:02:33.798Z,85.42
2022-12-03T06:05:19.586Z,87.52
2022-12-03T06:08:03.709Z,87.99
2022-12-03T06:10:47.802Z,87.11
2022-12-03T06:13:31.831Z,86.26
2022-12-03T06:16:16.016Z,86.79
2022-12-03T06:19:01.568Z,87.12
2022-12-03T06:21:45.477Z,87.50
2022-12-03T06:24:29.422Z,87.36
2022-12-03T06:27:13.537Z,86.40
2022-12-03T06:29:57.445Z,86.33
2022-12-03T06:32:41.279Z,85.45
2022-12-03T06:35:26.483Z,84.69
2022-12-03T06:38:10.321Z,85.30
2022-12-03T06:40:54.071Z,84.54
2022-12-03T06:43:37.838Z,84.00
2022-12-03T06:46:21.662Z,83.99
2022-12-03T06:49:05.915Z,82.17
2022-12-03T06:51:51.083Z,81.99
2022-12-03T06:54:34.906Z,82.69
2022-12-03T06:57:18.706Z,80.73
2022-12-03T07:00:02.379Z,82.03
2022-12-03T07:02:47.762Z,82.59
2022-12-03T07:05:31.591Z,79.23
2022-12-03T07:08:16.902Z,79.33
2022-12-03T07:11:00.884Z,78.00
2022-12-03T07:13:45.855Z,79.27
2022-12-03T07:16:30.672Z,81.75
2022-12-03T07:19:14.981Z,82.10
2022-12-03T07:21:58.967Z,82.68
2022-12-03T07:24:44.420Z,82.41
2022-12-03T07:27:28.357Z,81.20
2022-12-03T07:30:15.239Z,81.93
2022-12-03T07:32:59.255Z,82.73
2022-12-03T07:35:44.268Z,84.79
2022-12-03T07:38:28.268Z,81.89
2022-12-03T07:41:13.754Z,81.36
2022-12-03T07:43:57.783Z,79.85
2022-12-03T07:46:42.193Z,78.36
2022-12-03T07:49:26.893Z,76.80
2022-12-03T07:52:10.984Z,75.73
2022-12-03T07:54:55.239Z,74.24
2022-12-03T07:57:41.101Z,73.01
2022-12-03T08:00:25.401Z,72.18
2022-12-03T08:03:09.552Z,72.57
2022-12-03T08:05:53.560Z,71.77
2022-12-03T08:08:37.541Z,72.07
2022-12-03T08:11:21.726Z,70.80
2022-12-03T08:14:14.302Z,72.49
2022-12-03T08:16:58.323Z,74.62
2022-12-03T08:19:46.599Z,72.76
2022-12-03T08:22:30.933Z,73.92
2022-12-03T08:25:19.014Z,71.61
2022-12-03T08:28:12.320Z,72.76
2022-12-03T08:31:04.008Z,72.12
2022-12-03T08:33:50.677Z,71.20
2022-12-03T08:36:36.668Z,71.42
2022-12-03T08:39:29.915Z,71.81
2022-12-03T08:42:34.980Z,72.95
2022-12-03T08:45:39.964Z,70.84
2022-12-03T08:48:30.178Z,72.66
2022-12-03T08:51:20.483Z,74.65
2022-12-03T08:54:12.867Z,75.45
2022-12-03T08:56:56.845Z,74.60
2022-12-03T08:59:45.342Z,73.02
2022-12-03T09:02:33.600Z,74.10
2022-12-03T09:05:22.695Z,76.00
2022-12-03T09:08:06.816Z,74.46
2022-12-03T09:10:50.909Z,72.60
2022-12-03T09:13:34.824Z,73.87
2022-12-03T09:16:19.967Z,74.27
2022-12-03T09:19:03.880Z,73.32
2022-12-03T09:21:48.970Z,71.25
2022-12-03T09:24:32.944Z,72.84
2022-12-03T09:27:16.791Z,73.02
2022-12-03T09:30:00.521Z,74.20
2022-12-03T09:32:44.348Z,70.06
2022-12-03T09:35:28.224Z,72.34
2022-12-03T09:38:13.350Z,74.22
2022-12-03T09:40:57.504Z,75.05
2022-12-03T09:44:03.326Z,74.85
2022-12-03T09:46:47.355Z,76.31
2022-12-03T09:49:33.117Z,75.76
2022-12-03T09:52:22.677Z,75.77
2022-12-03T09:55:17.018Z,75.24
2022-12-03T09:58:01.398Z,77.29
2022-12-03T10:00:48.494Z,76.20
2022-12-03T10:03:33.660Z,73.38
2022-12-03T10:06:20.062Z,74.22
2022-12-03T10:09:06.244Z,74.46
2022-12-03T10:11:51.508Z,74.05
2022-12-03T10:14:35.804Z,75.44
2022-12-03T10:17:19.751Z,75.10
2022-12-03T10:20:03.603Z,74.32
2022-12-03T10:22:48.984Z,74.71
2022-12-03T10:25:32.913Z,73.71
2022-12-03T10:28:28.994Z,72.56
2022-12-03T10:31:14.434Z,72.99
2022-12-03T10:33:59.568Z,71.82
2022-12-03T10:36:43.250Z,72.05
2022-12-03T10:39:27.107Z,71.72
2022-12-03T10:42:16.558Z,72.36
2022-12-03T10:45:19.849Z,73.49
2022-12-03T10:48:07.309Z,72.12
2022-12-03T10:50:54.118Z,69.43
2022-12-03T10:53:41.576Z,68.65
2022-12-03T10:56:27.784Z,70.59
2022-12-03T10:59:16.518Z,69.93
2022-12-03T11:02:04.233Z,70.30
2022-12-03T11:04:48.935Z,67.13
2022-12-03T11:07:33.243Z,67.84
2022-12-03T11:10:20.157Z,70.56
2022-12-03T11:13:44.096Z,68.76
2022-12-03T11:17:07.935Z,71.80
2022-12-03T11:19:53.766Z,72.46
2022-12-03T11:22:46.665Z,72.77
2022-12-03T11:25:50.587Z,74.03
2022-12-03T11:28:51.278Z,75.88
2022-12-03T11:31:40.731Z,74.90
2022-12-03T11:34:48.926Z,75.32
2022-12-03T11:37:34.025Z,76.29
2022-12-03T11:40:28.459Z,75.01
2022-12-03T11:43:12.252Z,72.19
2022-12-03T11:46:02.687Z,72.97
2022-12-03T11:48:49.525Z,74.01
2022-12-03T11:51:33.704Z,74.67
2022-12-03T11:54:22.702Z,76.89
2022-12-03T11:57:29.033Z,78.54
2022-12-03T12:00:24.575Z,78.76
2022-12-03T12:03:23.872Z,77.64
2022-12-03T12:06:10.003Z,77.59
2022-12-03T12:08:58.708Z,77.37
2022-12-03T12:11:44.019Z,78.92
2022-12-03T12:14:27.943Z,79.01
2022-12-03T12:17:30.514Z,80.19
2022-12-03T12:20:26.274Z,80.02
2022-12-03T12:23:24.067Z,79.83
2022-12-03T12:26:08.146Z,80.65
2022-12-03T12:28:53.364Z,79.44
2022-12-03T12:31:37.087Z,78.91
2022-12-03T12:34:20.871Z,78.21
2022-12-03T12:37:10.141Z,77.44
2022-12-03T12:39:57.337Z,76.86
2022-12-03T12:42:53.699Z,76.71
2022-12-03T12:45:41.239Z,76.24
2022-12-03T12:48:27.915Z,77.59
2022-12-03T12:51:18.779Z,76.50
2022-12-03T12:54:03.451Z,74.63
2022-12-03T12:56:50.081Z,74.63
2022-12-03T12:59:34.185Z,73.93
2022-12-03T13:02:42.595Z,75.56
2022-12-03T13:05:27.927Z,77.44
2022-12-03T13:08:22.287Z,74.91
2022-12-03T13:11:06.548Z,77.09
2022-12-03T13:13:50.328Z,77.25
2022-12-03T13:16:35.626Z,76.21
2022-12-03T13:19:26.542Z,76.97
2022-12-03T13:22:14.544Z,75.99
2022-12-03T13:25:37.942Z,77.02
2022-12-03T13:28:22.642Z,78.43
2022-12-03T13:31:23.099Z,78.77
2022-12-03T13:34:17.256Z,79.61
2022-12-03T13:37:03.257Z,81.28
2022-12-03T13:39:48.926Z,80.53
2022-12-03T13:42:42.227Z,80.49
2022-12-03T13:45:32.940Z,80.10
2022-12-03T13:48:22.978Z,81.84
2022-12-03T13:51:21.284Z,81.31
2022-12-03T13:54:14.604Z,81.75
2022-12-03T13:57:00.303Z,81.13
2022-12-03T13:59:44.168Z,80.62
2022-12-03T14:02:28.003Z,82.22
2022-12-03T14:05:12.097Z,83.18
2022-12-03T14:08:01.860Z,83.80
2022-12-03T14:10:47.281Z,84.51
2022-12-03T14:13:31.051Z,85.21
2022-12-03T14:16:14.915Z,85.16
2022-12-03T14:18:58.827Z,84.58
2022-12-03T14:21:42.784Z,83.27
2022-12-03T14:24:26.731Z,85.01
2022-12-03T14:27:11.998Z,84.17
2022-12-03T14:29:56.423Z,85.47
2022-12-03T14:32:40.746Z,86.17
2022-12-03T14:35:24.732Z,87.25
2022-12-03T14:38:08.774Z,87.11
2022-12-03T14:40:52.727Z,86.51
2022-12-03T14:43:37.976Z,85.77
2022-12-03T14:46:21.773Z,86.11
2022-12-03T14:49:05.582Z,84.17
2022-12-03T14:51:49.285Z,83.48
2022-12-03T14:54:33.163Z,85.08
2022-12-03T14:57:17.430Z,84.39
2022-12-03T15:00:02.636Z,84.38
2022-12-03T15:02:47.300Z,85.78
2022-12-03T15:05:31.194Z,85.09
2022-12-03T15:08:14.916Z,85.43
2022-12-03T15:10:58.755Z,86.35
2022-12-03T15:13:42.567Z,86.16
2022-12-03T15:16:27.843Z,85.00
2022-12-03T15:19:11.691Z,87.17
2022-12-03T15:21:55.536Z,87.45
2022-12-03T15:24:39.313Z,86.29
2022-12-03T15:27:23.518Z,84.70
2022-12-03T15:30:08.820Z,86.32
2022-12-03T15:32:53.936Z,86.79
2022-12-03T15:35:37.868Z,86.95
2022-12-03T15:38:21.717Z,86.96
2022-12-03T15:41:21.673Z,86.82
2022-12-03T15:44:05.708Z,86.14
2022-12-03T15:46:49.584Z,86.65
2022-12-03T15:49:34.680Z,86.64
2022-12-03T15:52:18.760Z,85.68
2022-12-03T15:55:02.816Z,86.61
2022-12-03T15:57:47.510Z,85.74
2022-12-03T16:00:31.376Z,85.42
2022-12-03T16:03:15.956Z,85.82
2022-12-03T16:06:01.195Z,85.57
2022-12-03T16:08:45.190Z,85.97
2022-12-03T16:11:28.906Z,86.98
2022-12-03T16:14:12.586Z,87.69
2022-12-03T16:16:56.506Z,87.03
2022-12-03T16:19:40.512Z,88.57
2022-12-03T16:22:26.107Z,86.75
2022-12-03T16:25:10.346Z,87.26
2022-12-03T16:27:54.305Z,87.82
2022-12-03T16:30:38.360Z,88.88
2022-12-03T16:33:27.263Z,87.99
2022-12-03T16:36:11.942Z,88.17
2022-12-03T16:38:58.247Z,88.76
2022-12-03T16:41:42.218Z,90.16
2022-12-03T16:44:43.664Z,89.81
2022-12-03T16:47:33.366Z,88.88
2022-12-03T16:50:24.319Z,88.72
2022-12-03T16:53:13.268Z,87.96
2022-12-03T16:55:58.780Z,88.31
2022-12-03T16:58:42.874Z,88.07
2022-12-03T17:01:26.963Z,89.66
2022-12-03T17:04:11.113Z,89.82
2022-12-03T17:06:55.116Z,88.79
2022-12-03T17:09:39.765Z,88.41
2022-12-03T17:12:25.509Z,87.58
2022-12-03T17:15:10.336Z,87.92
2022-12-03T17:17:54.403Z,88.13
2022-12-03T17:20:38.885Z,88.81
2022-12-03T17:23:22.913Z,89.13
2022-12-03T17:26:06.978Z,89.28
2022-12-03T17:28:52.453Z,89.64
2022-12-03T17:31:41.723Z,88.12
2022-12-03T17:34:26.362Z,89.73
2022-12-03T17:37:10.291Z,88.56
2022-12-03T17:39:54.573Z,89.84
2022-12-03T17:42:38.799Z,90.55
2022-12-03T17:45:24.175Z,89.61
2022-12-03T17:48:08.572Z,88.61
2022-12-03T17:50:55.480Z,88.26
2022-12-03T17:53:39.469Z,89.33
2022-12-03T17:56:23.510Z,90.66
2022-12-03T17:59:07.600Z,89.89
2022-12-03T18:01:53.213Z,88.09
2022-12-03T18:04:37.365Z,89.05
2022-12-03T18:07:21.379Z,89.80
2022-12-03T18:10:06.265Z,90.52
2022-12-03T18:12:50.256Z,89.91
2022-12-03T18:15:34.271Z,88.81
2022-12-03T18:18:19.629Z,89.02
2022-12-03T18:21:04.417Z,88.35
2022-12-03T18:23:48.745Z,88.83
2022-12-03T18:26:33.173Z,87.90
2022-12-03T18:29:17.238Z,88.62
2022-12-03T18:32:01.335Z,88.45
2022-12-03T18:34:46.863Z,87.68
2022-12-03T18:37:32.326Z,87.55
2022-12-03T18:40:20.320Z,88.64
2022-12-03T18:43:07.149Z,90.09
2022-12-03T18:45:51.154Z,89.85
2022-12-03T18:48:35.112Z,89.37
2022-12-03T18:51:23.650Z,90.61
2022-12-03T18:54:12.756Z,89.73
2022-12-03T18:56:56.768Z,89.66
2022-12-03T18:59:40.706Z,89.00
2022-12-03T19:05:28.952Z,90.63
2022-12-03T19:08:15.478Z,89.46
2022-12-03T19:11:01.368Z,90.20
2022-12-03T19:13:45.989Z,90.28
2022-12-03T19:16:30.622Z,88.14
2022-12-03T19:19:14.620Z,88.83
2022-12-03T19:21:58.751Z,88.98
2022-12-03T19:24:44.465Z,89.82
2022-12-03T19:27:30.779Z,89.28
2022-12-03T19:30:15.381Z,89.84
2022-12-03T19:32:59.347Z,89.67
2022-12-03T19:35:43.319Z,89.18
2022-12-03T19:38:29.211Z,89.96
2022-12-03T19:41:14.687Z,89.37
2022-12-03T19:43:59.523Z,88.54
2022-12-03T19:46:44.370Z,89.83
2022-12-03T19:49:28.462Z,88.08
2022-12-03T19:52:12.486Z,90.10
2022-12-03T19:54:56.682Z,89.09
2022-12-03T19:57:42.167Z,88.86
2022-12-03T20:00:26.336Z,88.87
2022-12-03T20:03:10.377Z,89.81
2022-12-03T20:05:54.954Z,88.80
2022-12-03T20:08:39.183Z,89.70
2022-12-03T20:11:24.114Z,87.68
2022-12-03T20:14:12.700Z,88.82
2022-12-03T20:16:56.763Z,90.70
2022-12-03T20:19:40.810Z,91.04
2022-12-03T20:22:24.741Z,89.49
2022-12-03T20:25:09.302Z,88.86
2022-12-03T20:27:53.357Z,88.62
2022-12-03T20:30:38.443Z,87.79
2022-12-03T20:33:22.131Z,88.55
2022-12-03T20:36:06.406Z,86.98
2022-12-03T20:38:54.545Z,87.61
2022-12-03T20:41:39.106Z,88.98
2022-12-03T20:44:23.000Z,87.02
2022-12-03T20:47:08.733Z,86.60
2022-12-03T20:49:52.782Z,87.59
2022-12-03T20:52:37.719Z,86.81
2022-12-03T20:55:21.540Z,86.16
2022-12-03T20:58:05.462Z,87.42
2022-12-03T21:00:49.320Z,88.44
2022-12-03T21:03:34.557Z,87.67
2022-12-03T21:06:18.706Z,88.66
2022-12-03T21:09:02.589Z,88.37
2022-12-03T21:11:46.556Z,89.66
2022-12-03T21:14:30.287Z,88.41
2022-12-03T21:17:14.201Z,88.44
2022-12-03T21:19:59.697Z,88.82
2022-12-03T21:22:43.374Z,89.66
2022-12-03T21:25:27.118Z,90.27
2022-12-03T21:28:10.929Z,90.97
2022-12-03T21:30:54.830Z,90.85
2022-12-03T21:33:38.936Z,90.53
2022-12-03T21:36:25.135Z,90.14
2022-12-03T21:39:08.875Z,90.05
2022-12-03T21:42:19.349Z,89.60
2022-12-03T21:44:56.285Z,88.15
2022-12-03T21:47:40.368Z,89.42
2022-12-03T21:50:24.193Z,90.14
2022-12-03T21:53:10.019Z,90.12
2022-12-03T21:55:53.712Z,90.48
2022-12-03T21:58:37.674Z,89.88
2022-12-03T22:01:23.693Z,89.99
2022-12-03T22:04:07.519Z,89.17
2022-12-03T22:06:51.221Z,89.02
2022-12-03T22:09:36.520Z,88.67
2022-12-03T22:12:20.338Z,88.38
2022-12-03T22:15:04.160Z,87.86
2022-12-03T22:17:48.281Z,89.04
2022-12-03T22:20:32.190Z,87.88
2022-12-03T22:23:16.438Z,88.47
2022-12-03T22:26:05.110Z,89.68
2022-12-03T22:28:50.473Z,90.19
2022-12-03T22:31:34.353Z,90.41
2022-12-03T22:34:18.211Z,90.76
2022-12-03T22:37:02.007Z,90.24
2022-12-03T22:39:46.028Z,88.79
2022-12-03T22:42:31.073Z,89.57
2022-12-03T22:45:15.071Z,89.99
2022-12-03T22:47:58.755Z,89.85
2022-12-03T22:50:44.183Z,89.29
2022-12-03T22:53:27.934Z,90.25
2022-12-03T22:56:11.949Z,89.65
2022-12-03T22:58:57.317Z,90.80
2022-12-03T23:01:42.337Z,90.08
2022-12-03T23:04:26.033Z,90.76
2022-12-03T23:07:09.717Z,89.44
2022-12-03T23:09:53.927Z,89.38
2022-12-03T23:12:37.886Z,89.86
2022-12-03T23:15:23.039Z,90.21
2022-12-03T23:18:06.850Z,89.03
2022-12-03T23:20:52.149Z,89.04
2022-12-03T23:23:36.094Z,89.15
2022-12-03T23:26:19.902Z,90.32
2022-12-03T23:29:04.679Z,89.92
2022-12-03T23:31:49.799Z,89.74
2022-12-03T23:34:33.723Z,90.12
2022-12-03T23:37:17.435Z,89.77
2022-12-03T23:40:01.199Z,89.93
2022-12-03T23:42:45.354Z,90.12
2022-12-03T23:45:29.290Z,89.61
2022-12-03T23:48:14.455Z,88.32
2022-12-03T23:50:58.206Z,88.66
2022-12-03T23:53:42.553Z,88.13
2022-12-03T23:56:29.141Z,88.12
2022-12-03T23:59:13.265Z,86.17
